createdAt,value
2017-12-21T00:01:30.504Z,4.02
2017-12-21T00:03:58.768Z,4.02
2017-12-21T00:06:27.783Z,3.98
2017-12-21T00:08:56.827Z,4.00
2017-12-21T00:11:25.084Z,4.03
2017-12-21T00:13:54.121Z,4.03
2017-12-21T00:16:22.352Z,4.04
2017-12-21T00:18:50.603Z,4.04
2017-12-21T00:21:18.871Z,4.05
2017-12-21T00:23:47.120Z,4.05
2017-12-21T00:26:15.356Z,4.07
2017-12-21T00:28:43.615Z,4.04
2017-12-21T00:31:12.661Z,4.07
2017-12-21T00:33:40.945Z,4.03
2017-12-21T00:36:09.282Z,4.10
2017-12-21T00:38:38.252Z,4.13
2017-12-21T00:41:06.553Z,4.10
2017-12-21T00:43:34.799Z,4.08
2017-12-21T00:46:12.538Z,4.14
2017-12-21T00:48:40.901Z,4.16
2017-12-21T00:51:10.385Z,4.09
2017-12-21T00:53:38.685Z,4.06
2017-12-21T00:56:07.882Z,4.06
2017-12-21T00:58:36.220Z,3.99
2017-12-21T01:01:04.476Z,4.03
2017-12-21T01:03:32.742Z,3.99
2017-12-21T01:06:01.003Z,3.91
2017-12-21T01:08:29.246Z,3.81
2017-12-21T01:10:58.300Z,3.71
2017-12-21T01:13:26.681Z,3.67
2017-12-21T01:15:55.739Z,3.76
2017-12-21T01:18:23.987Z,3.80
2017-12-21T01:20:52.247Z,3.82
2017-12-21T01:23:20.498Z,3.87
2017-12-21T01:25:48.747Z,3.89
2017-12-21T01:28:16.995Z,3.87
2017-12-21T01:30:46.015Z,3.82
2017-12-21T01:33:15.052Z,3.74
2017-12-21T01:35:43.317Z,3.76
2017-12-21T01:38:11.622Z,3.82
2017-12-21T01:40:40.035Z,3.76
2017-12-21T01:43:08.359Z,3.79
2017-12-21T01:45:37.427Z,3.80
2017-12-21T01:48:05.992Z,3.75
2017-12-21T01:50:34.256Z,3.71
2017-12-21T01:53:03.268Z,3.75
2017-12-21T01:55:32.294Z,3.72
2017-12-21T01:58:00.543Z,3.72
2017-12-21T02:00:28.819Z,3.73
2017-12-21T02:02:57.065Z,3.70
2017-12-21T02:05:25.388Z,3.75
2017-12-21T02:07:53.627Z,3.74
2017-12-21T02:10:21.873Z,3.77
2017-12-21T02:12:50.120Z,3.82
2017-12-21T02:15:18.451Z,3.88
2017-12-21T02:17:46.722Z,3.84
2017-12-21T02:20:14.959Z,3.80
2017-12-21T02:22:44.562Z,3.83
2017-12-21T02:25:12.877Z,3.79
2017-12-21T02:27:41.927Z,3.83
2017-12-21T02:30:10.214Z,3.81
2017-12-21T02:32:38.559Z,3.87
2017-12-21T02:35:06.852Z,3.98
2017-12-21T02:37:35.134Z,3.96
2017-12-21T02:40:04.903Z,4.00
2017-12-21T02:42:33.162Z,3.93
2017-12-21T02:45:02.197Z,3.93
2017-12-21T02:47:30.456Z,3.95
2017-12-21T02:49:59.464Z,3.98
2017-12-21T02:52:28.473Z,3.92
2017-12-21T02:54:57.504Z,4.00
2017-12-21T02:57:25.788Z,3.96
2017-12-21T02:59:54.059Z,4.02
2017-12-21T03:02:23.090Z,3.97
2017-12-21T03:04:51.353Z,3.90
2017-12-21T03:07:20.369Z,3.90
2017-12-21T03:09:48.615Z,3.91
2017-12-21T03:12:16.874Z,3.96
2017-12-21T03:14:45.147Z,3.98
2017-12-21T03:17:13.420Z,3.97
2017-12-21T03:19:42.488Z,3.96
2017-12-21T03:22:10.772Z,4.06
2017-12-21T03:24:39.187Z,4.12
2017-12-21T03:27:07.535Z,4.16
2017-12-21T03:29:35.862Z,4.12
2017-12-21T03:32:04.169Z,4.08
2017-12-21T03:34:33.166Z,4.09
2017-12-21T03:37:02.203Z,4.13
2017-12-21T03:39:31.379Z,4.13
2017-12-21T03:41:59.614Z,4.17
2017-12-21T03:44:27.931Z,4.18
2017-12-21T03:46:56.231Z,4.27
2017-12-21T03:49:25.276Z,4.24
2017-12-21T03:51:53.511Z,4.24
2017-12-21T03:54:21.774Z,4.29
2017-12-21T03:56:50.026Z,4.27
2017-12-21T03:59:18.276Z,4.24
2017-12-21T04:01:46.526Z,4.29
2017-12-21T04:04:14.790Z,4.27
2017-12-21T04:06:43.036Z,4.31
2017-12-21T04:09:11.334Z,4.31
2017-12-21T04:11:39.667Z,4.30
2017-12-21T04:14:07.970Z,4.27
2017-12-21T04:16:37.786Z,4.35
2017-12-21T04:19:06.859Z,4.27
2017-12-21T04:21:35.113Z,4.27
2017-12-21T04:24:03.358Z,4.27
2017-12-21T04:26:32.371Z,4.24
2017-12-21T04:29:01.408Z,4.31
2017-12-21T04:31:29.664Z,4.27
2017-12-21T04:33:58.698Z,4.32
2017-12-21T04:36:27.061Z,4.41
2017-12-21T04:38:56.083Z,4.35
2017-12-21T04:41:24.322Z,4.41
2017-12-21T04:43:52.597Z,4.39
2017-12-21T04:46:20.835Z,4.43
2017-12-21T04:48:49.854Z,4.47
2017-12-21T04:51:18.857Z,4.46
2017-12-21T04:53:47.872Z,4.49
2017-12-21T04:56:16.119Z,4.51
2017-12-21T04:58:44.375Z,4.52
2017-12-21T05:01:12.626Z,4.46
2017-12-21T05:03:41.713Z,4.50
2017-12-21T05:06:10.080Z,4.44
2017-12-21T05:08:38.420Z,4.50
2017-12-21T05:11:06.720Z,4.49
2017-12-21T05:13:35.034Z,4.44
2017-12-21T05:16:03.282Z,4.47
2017-12-21T05:18:32.305Z,4.54
2017-12-21T05:21:01.419Z,4.42
2017-12-21T05:23:30.437Z,4.37
2017-12-21T05:25:58.682Z,4.33
2017-12-21T05:28:26.955Z,4.27
2017-12-21T05:30:55.223Z,4.29
2017-12-21T05:33:24.237Z,4.35
2017-12-21T05:35:52.490Z,4.36
2017-12-21T05:38:20.731Z,4.31
2017-12-21T05:40:48.989Z,4.39
2017-12-21T05:43:17.242Z,4.36
2017-12-21T05:45:46.263Z,4.36
2017-12-21T05:48:14.510Z,4.39
2017-12-21T05:50:42.782Z,4.37
2017-12-21T05:53:11.123Z,4.36
2017-12-21T05:55:40.252Z,4.50
2017-12-21T05:58:08.580Z,4.45
2017-12-21T06:00:36.942Z,4.43
2017-12-21T06:03:05.187Z,4.47
2017-12-21T06:05:33.455Z,4.49
2017-12-21T06:08:01.724Z,4.55
2017-12-21T06:10:30.067Z,4.64
2017-12-21T06:12:59.111Z,4.61
2017-12-21T06:15:27.371Z,4.60
2017-12-21T06:17:56.389Z,4.60
2017-12-21T06:20:24.657Z,4.58
2017-12-21T06:22:52.928Z,4.66
2017-12-21T06:25:21.192Z,4.63
2017-12-21T06:27:49.427Z,4.61
2017-12-21T06:30:19.049Z,4.63
2017-12-21T06:32:48.060Z,4.62
2017-12-21T06:35:16.311Z,4.60
2017-12-21T06:37:44.563Z,4.57
2017-12-21T06:40:12.880Z,4.67
2017-12-21T06:42:41.172Z,4.60
2017-12-21T06:45:09.550Z,4.59
2017-12-21T06:47:37.931Z,4.60
2017-12-21T06:50:06.200Z,4.69
2017-12-21T06:52:34.467Z,4.64
2017-12-21T06:55:03.486Z,4.68
2017-12-21T06:57:31.735Z,4.73
2017-12-21T06:59:59.995Z,4.71
2017-12-21T07:02:28.247Z,4.69
2017-12-21T07:04:57.280Z,4.74
2017-12-21T07:07:25.584Z,4.79
2017-12-21T07:09:53.815Z,4.80
2017-12-21T07:12:22.846Z,4.86
2017-12-21T07:14:51.909Z,4.87
2017-12-21T07:17:20.115Z,4.90
2017-12-21T07:19:48.388Z,4.91
2017-12-21T07:22:16.619Z,4.93
2017-12-21T07:24:44.882Z,4.94
2017-12-21T07:27:13.307Z,5.03
2017-12-21T07:29:41.565Z,5.03
2017-12-21T07:32:09.892Z,5.03
2017-12-21T07:34:38.197Z,5.00
2017-12-21T07:37:06.477Z,4.97
2017-12-21T07:39:34.721Z,5.01
2017-12-21T07:42:02.975Z,5.05
2017-12-21T07:44:31.221Z,5.13
2017-12-21T07:46:59.486Z,5.13
2017-12-21T07:49:27.772Z,5.18
2017-12-21T07:51:56.036Z,5.11
2017-12-21T07:54:24.287Z,5.12
2017-12-21T07:56:52.539Z,5.19
2017-12-21T07:59:20.777Z,5.17
2017-12-21T08:01:49.026Z,5.24
2017-12-21T08:04:18.048Z,5.30
2017-12-21T08:06:46.318Z,5.34
2017-12-21T08:09:14.563Z,5.42
2017-12-21T08:11:44.307Z,5.42
2017-12-21T08:14:12.583Z,5.42
2017-12-21T08:16:40.851Z,5.40
2017-12-21T08:19:09.174Z,6.72
2017-12-21T08:21:37.467Z,6.00
2017-12-21T08:24:05.735Z,5.72
2017-12-21T08:26:33.990Z,5.52
2017-12-21T08:29:02.255Z,5.49
2017-12-21T08:31:31.275Z,5.47
2017-12-21T08:34:00.296Z,5.55
2017-12-21T08:36:28.543Z,5.54
2017-12-21T08:38:56.826Z,5.58
2017-12-21T08:41:25.142Z,5.56
2017-12-21T08:43:54.175Z,5.56
2017-12-21T08:46:22.418Z,5.59
2017-12-21T08:48:50.696Z,5.59
2017-12-21T08:51:18.944Z,5.62
2017-12-21T08:53:47.214Z,5.65
2017-12-21T08:56:15.514Z,5.55
2017-12-21T08:58:44.548Z,5.69
2017-12-21T09:01:12.834Z,5.59
2017-12-21T09:03:41.091Z,5.54
2017-12-21T09:06:09.391Z,5.54
2017-12-21T09:08:37.761Z,5.61
2017-12-21T09:11:06.936Z,6.86
2017-12-21T09:13:35.204Z,7.75
2017-12-21T09:16:03.443Z,6.66
2017-12-21T09:18:32.468Z,6.25
2017-12-21T09:21:00.711Z,6.24
2017-12-21T09:23:28.976Z,6.09
2017-12-21T09:25:57.250Z,6.10
2017-12-21T09:28:25.532Z,5.98
2017-12-21T09:30:53.795Z,6.05
2017-12-21T09:33:22.799Z,6.17
2017-12-21T09:35:51.827Z,7.29
2017-12-21T09:38:20.123Z,6.63
2017-12-21T09:40:48.423Z,6.55
2017-12-21T09:43:16.662Z,8.30
2017-12-21T09:45:44.985Z,7.03
2017-12-21T09:48:13.248Z,6.84
2017-12-21T09:50:42.316Z,6.77
2017-12-21T09:53:10.563Z,6.74
2017-12-21T09:55:39.669Z,6.78
2017-12-21T09:58:08.727Z,6.97
2017-12-21T10:00:37.131Z,6.92
2017-12-21T10:03:06.229Z,6.94
2017-12-21T10:05:35.718Z,6.98
2017-12-21T10:08:03.969Z,6.95
2017-12-21T10:10:32.239Z,7.01
2017-12-21T10:13:00.481Z,7.04
2017-12-21T10:15:28.758Z,6.90
2017-12-21T10:17:57.058Z,7.06
2017-12-21T10:20:25.342Z,7.09
2017-12-21T10:22:53.615Z,7.25
2017-12-21T10:25:22.731Z,7.22
2017-12-21T10:27:50.981Z,7.30
2017-12-21T10:30:19.291Z,7.31
2017-12-21T10:32:47.547Z,7.37
2017-12-21T10:35:15.802Z,7.57
2017-12-21T10:37:44.947Z,7.33
2017-12-21T10:40:13.289Z,7.32
2017-12-21T10:42:42.352Z,7.50
2017-12-21T10:45:10.635Z,7.39
2017-12-21T10:47:38.942Z,7.16
2017-12-21T10:50:08.022Z,7.28
2017-12-21T10:52:37.051Z,7.30
2017-12-21T10:55:09.608Z,7.32
2017-12-21T10:57:38.025Z,7.37
2017-12-21T11:00:07.108Z,7.38
2017-12-21T11:02:35.389Z,7.19
2017-12-21T11:05:04.387Z,7.19
2017-12-21T11:07:32.621Z,7.16
2017-12-21T11:10:00.869Z,7.25
2017-12-21T11:12:29.106Z,7.43
2017-12-21T11:14:57.412Z,7.16
2017-12-21T11:17:25.742Z,7.20
2017-12-21T11:19:54.363Z,7.07
2017-12-21T11:22:22.862Z,7.16
2017-12-21T11:24:51.117Z,7.20
2017-12-21T11:27:19.399Z,7.22
2017-12-21T11:29:47.652Z,7.21
2017-12-21T11:32:15.909Z,7.61
2017-12-21T11:34:44.143Z,7.23
2017-12-21T11:37:13.226Z,7.15
2017-12-21T11:39:41.513Z,7.06
2017-12-21T11:42:09.837Z,7.37
2017-12-21T11:44:39.001Z,7.18
2017-12-21T11:47:08.125Z,6.95
2017-12-21T11:49:37.195Z,7.05
2017-12-21T11:52:05.471Z,7.06
2017-12-21T11:54:33.715Z,7.16
2017-12-21T11:57:01.983Z,7.20
2017-12-21T11:59:30.272Z,7.07
2017-12-21T12:01:58.568Z,6.93
2017-12-21T12:04:26.855Z,6.92
2017-12-21T12:06:55.137Z,6.99
2017-12-21T12:09:23.383Z,7.00
2017-12-21T12:11:52.432Z,7.13
2017-12-21T12:14:20.676Z,7.09
2017-12-21T12:16:48.990Z,7.11
2017-12-21T12:19:17.267Z,7.36
2017-12-21T12:21:45.522Z,7.35
2017-12-21T12:24:14.910Z,7.29
2017-12-21T12:26:43.174Z,7.06
2017-12-21T12:29:11.469Z,7.29
2017-12-21T12:31:39.753Z,7.42
2017-12-21T12:34:08.124Z,7.27
2017-12-21T12:36:36.437Z,7.14
2017-12-21T12:39:06.759Z,7.16
2017-12-21T12:41:34.995Z,7.22
2017-12-21T12:44:03.272Z,7.24
2017-12-21T12:46:31.507Z,7.28
2017-12-21T12:49:00.560Z,7.27
2017-12-21T12:51:28.835Z,7.40
2017-12-21T12:53:57.123Z,7.35
2017-12-21T12:56:25.407Z,7.29
2017-12-21T12:58:53.682Z,7.38
2017-12-21T13:01:22.675Z,7.23
2017-12-21T13:03:52.440Z,7.28
2017-12-21T13:06:20.682Z,7.20
2017-12-21T13:08:50.294Z,7.22
2017-12-21T13:11:19.300Z,7.20
2017-12-21T13:13:47.566Z,7.14
2017-12-21T13:16:15.811Z,7.02
2017-12-21T13:18:44.065Z,6.90
2017-12-21T13:21:12.329Z,6.88
2017-12-21T13:23:40.604Z,6.81
2017-12-21T13:26:08.896Z,6.62
2017-12-21T13:28:37.179Z,6.60
2017-12-21T13:31:05.420Z,6.51
2017-12-21T13:33:35.187Z,6.48
2017-12-21T13:36:03.455Z,6.42
2017-12-21T13:38:31.710Z,6.48
2017-12-21T13:41:00.719Z,6.43
2017-12-21T13:43:29.747Z,6.42
2017-12-21T13:45:58.024Z,6.48
2017-12-21T13:48:27.131Z,6.47
2017-12-21T13:50:56.153Z,6.50
2017-12-21T13:53:24.433Z,6.57
2017-12-21T13:55:53.451Z,6.48
2017-12-21T13:58:21.715Z,6.49
2017-12-21T14:00:51.466Z,6.46
2017-12-21T14:03:19.749Z,6.55
2017-12-21T14:05:47.991Z,6.57
2017-12-21T14:08:16.437Z,6.55
2017-12-21T14:10:44.694Z,6.50
2017-12-21T14:13:12.977Z,6.50
2017-12-21T14:15:42.096Z,6.47
2017-12-21T14:18:11.237Z,6.55
2017-12-21T14:20:39.620Z,6.58
2017-12-21T14:23:08.005Z,6.57
2017-12-21T14:25:36.410Z,6.54
2017-12-21T14:28:04.867Z,6.56
2017-12-21T14:30:34.072Z,6.89
2017-12-21T14:33:02.343Z,6.72
2017-12-21T14:35:30.590Z,6.65
2017-12-21T14:37:58.895Z,6.70
2017-12-21T14:40:27.150Z,6.62
2017-12-21T14:42:56.174Z,6.72
2017-12-21T14:45:24.443Z,7.00
2017-12-21T14:47:53.454Z,6.81
2017-12-21T14:50:22.490Z,6.79
2017-12-21T14:52:50.740Z,6.75
2017-12-21T14:55:19.012Z,6.63
2017-12-21T14:57:47.264Z,6.71
2017-12-21T15:00:15.511Z,6.71
2017-12-21T15:02:44.543Z,6.63
2017-12-21T15:05:12.799Z,6.61
2017-12-21T15:07:41.830Z,6.73
2017-12-21T15:10:10.134Z,6.71
2017-12-21T15:12:38.456Z,6.73
2017-12-21T15:15:06.801Z,6.63
2017-12-21T15:17:35.087Z,6.66
2017-12-21T15:20:03.340Z,6.61
2017-12-21T15:22:31.591Z,6.61
2017-12-21T15:24:59.850Z,6.63
2017-12-21T15:27:28.119Z,6.63
2017-12-21T15:29:57.147Z,6.57
2017-12-21T15:32:25.406Z,6.52
2017-12-21T15:34:53.751Z,6.55
2017-12-21T15:37:22.013Z,6.56
2017-12-21T15:39:50.262Z,6.55
2017-12-21T15:42:18.532Z,6.51
2017-12-21T15:44:46.767Z,6.49
2017-12-21T15:47:16.169Z,6.55
2017-12-21T15:49:45.202Z,6.51
2017-12-21T15:52:13.478Z,6.61
2017-12-21T15:54:42.545Z,6.60
2017-12-21T15:57:11.583Z,6.52
2017-12-21T15:59:39.875Z,6.49
2017-12-21T16:02:08.940Z,6.69
2017-12-21T16:04:37.224Z,6.65
2017-12-21T16:07:05.490Z,6.70
2017-12-21T16:09:33.728Z,6.72
2017-12-21T16:12:02.039Z,6.64
2017-12-21T16:14:31.063Z,6.66
2017-12-21T16:16:59.336Z,6.58
2017-12-21T16:19:28.380Z,6.55
2017-12-21T16:21:56.718Z,6.62
2017-12-21T16:24:24.910Z,6.51
2017-12-21T16:26:53.167Z,6.57
2017-12-21T16:29:22.191Z,6.64
2017-12-21T16:31:50.462Z,6.62
2017-12-21T16:34:18.708Z,6.63
2017-12-21T16:36:46.970Z,6.59
2017-12-21T16:39:15.223Z,6.59
2017-12-21T16:41:43.486Z,6.63
2017-12-21T16:44:11.756Z,6.62
2017-12-21T16:46:40.786Z,6.68
2017-12-21T16:49:09.045Z,6.70
2017-12-21T16:51:37.339Z,6.59
2017-12-21T16:54:06.375Z,6.59
2017-12-21T16:56:34.651Z,6.63
2017-12-21T16:59:02.891Z,6.65
2017-12-21T17:01:31.130Z,6.60
2017-12-21T17:03:59.422Z,6.60
2017-12-21T17:06:27.687Z,6.58
2017-12-21T17:08:56.753Z,6.60
2017-12-21T17:11:25.005Z,6.64
2017-12-21T17:13:54.034Z,6.61
2017-12-21T17:16:22.280Z,6.65
2017-12-21T17:18:51.309Z,6.72
2017-12-21T17:21:19.561Z,6.70
2017-12-21T17:23:47.863Z,6.64
2017-12-21T17:26:16.881Z,6.64
2017-12-21T17:28:45.919Z,6.69
2017-12-21T17:31:14.164Z,6.75
2017-12-21T17:33:43.187Z,6.71
2017-12-21T17:36:11.440Z,6.71
2017-12-21T17:38:39.793Z,6.75
2017-12-21T17:41:08.989Z,6.85
2017-12-21T17:43:37.275Z,6.83
2017-12-21T17:46:05.531Z,6.82
2017-12-21T17:48:33.827Z,6.84
2017-12-21T17:51:02.870Z,6.94
2017-12-21T17:53:31.151Z,6.83
2017-12-21T17:55:59.403Z,6.73
2017-12-21T17:58:27.685Z,6.75
2017-12-21T18:00:55.934Z,6.85
2017-12-21T18:03:24.236Z,6.75
2017-12-21T18:05:52.525Z,6.78
2017-12-21T18:08:20.775Z,6.74
2017-12-21T18:10:49.030Z,6.71
2017-12-21T18:13:17.307Z,6.70
2017-12-21T18:15:45.593Z,6.67
2017-12-21T18:18:13.859Z,6.64
2017-12-21T18:20:42.117Z,6.63
2017-12-21T18:23:10.401Z,6.68
2017-12-21T18:25:38.676Z,6.73
2017-12-21T18:28:07.686Z,6.85
2017-12-21T18:30:42.132Z,6.85
2017-12-21T18:33:10.421Z,6.83
2017-12-21T18:35:39.463Z,6.86
2017-12-21T18:38:08.125Z,6.84
2017-12-21T18:40:36.405Z,6.81
2017-12-21T18:43:05.615Z,6.78
2017-12-21T18:45:34.684Z,6.76
2017-12-21T18:48:02.930Z,6.83
2017-12-21T18:50:31.189Z,6.93
2017-12-21T18:53:00.218Z,6.89
2017-12-21T18:55:28.526Z,6.89
2017-12-21T18:57:56.778Z,6.87
2017-12-21T19:00:25.825Z,6.81
2017-12-21T19:02:54.106Z,6.92
2017-12-21T19:05:22.405Z,6.88
2017-12-21T19:07:50.651Z,6.85
2017-12-21T19:10:19.702Z,6.87
2017-12-21T19:12:47.955Z,6.88
2017-12-21T19:15:16.981Z,6.91
2017-12-21T19:17:45.270Z,6.96
2017-12-21T19:20:13.575Z,6.93
2017-12-21T19:22:41.876Z,6.98
2017-12-21T19:25:10.226Z,6.96
2017-12-21T19:27:38.579Z,6.94
2017-12-21T19:30:06.964Z,6.90
2017-12-21T19:32:35.226Z,6.87
2017-12-21T19:35:03.479Z,6.86
2017-12-21T19:37:32.528Z,6.96
2017-12-21T19:40:00.833Z,6.97
2017-12-21T19:42:29.120Z,6.96
2017-12-21T19:44:57.454Z,6.99
2017-12-21T19:47:26.508Z,6.93
2017-12-21T19:49:55.570Z,6.92
2017-12-21T19:52:24.623Z,6.97
2017-12-21T19:54:52.925Z,6.91
2017-12-21T19:57:21.215Z,6.93
2017-12-21T19:59:49.498Z,6.96
2017-12-21T20:02:17.809Z,6.96
2017-12-21T20:04:46.090Z,6.94
2017-12-21T20:07:14.434Z,6.95
2017-12-21T20:09:42.743Z,6.96
2017-12-21T20:12:11.079Z,6.95
2017-12-21T20:14:39.338Z,6.91
2017-12-21T20:17:08.452Z,6.94
2017-12-21T20:19:36.850Z,6.92
2017-12-21T20:22:05.175Z,6.96
2017-12-21T20:24:34.222Z,6.97
2017-12-21T20:27:02.487Z,7.00
2017-12-21T20:29:30.780Z,6.99
2017-12-21T20:31:59.036Z,6.94
2017-12-21T20:34:28.107Z,6.93
2017-12-21T20:36:56.424Z,6.96
2017-12-21T20:39:24.694Z,6.93
2017-12-21T20:41:52.998Z,7.12
2017-12-21T20:44:21.311Z,7.07
2017-12-21T20:46:50.340Z,7.02
2017-12-21T20:49:18.626Z,6.97
2017-12-21T20:51:47.755Z,6.99
2017-12-21T20:54:15.990Z,6.94
2017-12-21T20:56:44.308Z,6.98
2017-12-21T20:59:13.913Z,7.00
2017-12-21T21:01:42.282Z,7.01
2017-12-21T21:04:10.698Z,7.04
2017-12-21T21:06:39.841Z,7.02
2017-12-21T21:09:08.386Z,6.96
2017-12-21T21:11:36.730Z,7.08
2017-12-21T21:14:05.166Z,7.01
2017-12-21T21:16:33.599Z,7.00
2017-12-21T21:19:01.897Z,6.96
2017-12-21T21:21:30.199Z,6.96
2017-12-21T21:23:58.498Z,7.00
2017-12-21T21:26:26.828Z,6.99
2017-12-21T21:28:56.083Z,6.97
2017-12-21T21:31:25.150Z,6.96
2017-12-21T21:33:53.482Z,6.98
2017-12-21T21:36:21.821Z,6.91
2017-12-21T21:38:50.888Z,6.95
2017-12-21T21:41:19.179Z,6.98
2017-12-21T21:43:47.516Z,6.91
2017-12-21T21:46:15.759Z,6.94
2017-12-21T21:48:44.843Z,6.92
2017-12-21T21:51:13.137Z,6.89
2017-12-21T21:53:41.591Z,6.92
2017-12-21T21:56:09.886Z,6.87
2017-12-21T21:58:38.267Z,7.01
2017-12-21T22:01:06.554Z,6.92
2017-12-21T22:03:34.884Z,6.91
2017-12-21T22:06:03.297Z,6.89
2017-12-21T22:08:31.906Z,6.86
2017-12-21T22:11:00.262Z,6.85
2017-12-21T22:13:28.526Z,6.99
2017-12-21T22:15:56.827Z,6.84
2017-12-21T22:18:25.131Z,6.74
2017-12-21T22:20:53.365Z,6.76
2017-12-21T22:23:21.756Z,6.69
2017-12-21T22:25:50.822Z,6.62
2017-12-21T22:28:19.125Z,6.63
2017-12-21T22:30:47.610Z,6.51
2017-12-21T22:33:15.896Z,6.44
2017-12-21T22:35:44.246Z,6.38
2017-12-21T22:38:12.681Z,6.41
2017-12-21T22:40:40.923Z,6.41
2017-12-21T22:43:09.291Z,6.37
2017-12-21T22:45:37.642Z,6.33
2017-12-21T22:48:06.808Z,6.38
2017-12-21T22:50:35.966Z,6.31
2017-12-21T22:53:04.263Z,6.32
2017-12-21T22:55:32.590Z,6.32
2017-12-21T22:58:00.874Z,6.30
2017-12-21T23:00:29.215Z,6.37
2017-12-21T23:02:58.272Z,6.32
2017-12-21T23:05:27.428Z,6.35
2017-12-21T23:07:55.744Z,6.36
2017-12-21T23:10:24.128Z,6.36
2017-12-21T23:12:52.469Z,6.38
2017-12-21T23:15:20.999Z,6.37
2017-12-21T23:17:50.086Z,6.43
2017-12-21T23:20:18.500Z,6.42
2017-12-21T23:22:46.863Z,6.41
2017-12-21T23:25:15.189Z,6.43
2017-12-21T23:27:44.241Z,6.44
2017-12-21T23:30:12.553Z,6.48
2017-12-21T23:32:40.856Z,6.44
2017-12-21T23:35:09.174Z,6.45
2017-12-21T23:37:37.410Z,6.48
2017-12-21T23:40:06.319Z,6.58
2017-12-21T23:42:34.593Z,6.53
2017-12-21T23:45:02.883Z,6.55
2017-12-21T23:47:31.182Z,6.58
2017-12-21T23:49:59.444Z,6.60
2017-12-21T23:52:27.691Z,6.63
2017-12-21T23:54:56.761Z,6.65
2017-12-21T23:57:25.047Z,6.69
2017-12-21T23:59:53.301Z,6.66
